KTWF/TWF METAR and TAF weather

Enter ICAO airport designator
Station Type Date Time Source
KTWF METAR 2019/02/20 07:11 UTC NOAA

KTWF 200711Z AUTO 23013KT 1 3/4SM -SN BR OVC032 M04/M07 A2978 RMK AO2 SNB03 P0000 T10441067


Station Type Date Time Source
KTWF Decoded METAR 2019/02/20 07:11 UTC NOAA

JOSLIN FLD-MAGIC VALLEY REGL, ID, United States (KTWF) 42-29N 114-29W 1266M
Feb 20, 2019 - 02:11 AM EST / 2019.02.20 0711 UTC
Wind: from the SW (230 degrees) at 15 MPH (13 KT):0
Visibility: 1 3/4 mile(s):0
Sky conditions: overcast
Weather: light snow; mist
Precipitation last hour: A trace
Temperature: 24.1 F (-4.4 C)
Windchill: 12 F (-11 C):1
Dew Point: 19.9 F (-6.7 C)
Relative Humidity: 83%
Pressure (altimeter): 29.78 in. Hg (1008 hPa)
ob: KTWF 200711Z AUTO 23013KT 1 3/4SM -SN BR OVC032 M04/M07 A2978 RMK AO2 SNB03 P0000 T10441067
cycle: 7

Station Type Date Time Source
KTWF TAF 2019/02/20 06:24 UTC NOAA

TAF KTWF 200523Z 2006/2106 22010KT 3SM -SN BR OVC035
FM200700 24010KT 1SM -SN BR OVC015
FM201500 22008KT 5SM -SN BR OVC010
FM201800 22010KT P6SM OVC025
FM210100 14005KT P6SM BKN040


Example: see airport list